Time;durP1;ratioP1;P1;durP2;ratioP2;P2;SDS_P1;SDS_P2;PMS_P1;PMS_P2;Temp;Humidity;BMP_temperature;BMP_pressure;BME280_temperature;BME280_humidity;BME280_pressure;Samples;Min_cycle;Max_cycle;Signal;HPM_P1;HPM_P2
2023/08/26 00:01:38;;;;;;;13.50;7.00;;;;;;;15.13;100.00;100480.85;105839;1254;62349;-62
2023/08/26 00:04:05;;;;;;;10.20;6.50;;;;;;;15.07;100.00;100483.58;105936;1257;61233;-62
2023/08/26 00:06:34;;;;;;;10.70;5.80;;;;;;;15.03;100.00;100486.73;105816;1253;73511;-61
2023/08/26 00:09:01;;;;;;;9.40;6.10;;;;;;;15.01;100.00;100485.62;105912;1254;67316;-60
2023/08/26 00:11:28;;;;;;;8.20;5.60;;;;;;;15.00;100.00;100488.40;105845;1257;72720;-61
2023/08/26 00:13:55;;;;;;;9.60;5.60;;;;;;;14.98;100.00;100489.58;105586;1257;61140;-65
2023/08/26 00:16:22;;;;;;;11.70;5.90;;;;;;;14.97;100.00;100487.61;105785;1255;61793;-61
2023/08/26 00:18:50;;;;;;;9.70;5.50;;;;;;;14.96;100.00;100490.63;105773;1257;74580;-61
2023/08/26 00:21:21;;;;;;;9.20;5.70;;;;;;;14.95;100.00;100489.62;105955;1254;66921;-63
2023/08/26 00:23:49;;;;;;;11.00;5.90;;;;;;;14.95;100.00;100493.98;105684;1254;72374;-63
2023/08/26 00:26:18;;;;;;;7.70;5.10;;;;;;;14.94;100.00;100500.09;105983;1254;61254;-64
2023/08/26 00:28:45;;;;;;;8.10;5.60;;;;;;;14.92;100.00;100503.69;105704;1260;61390;-62
2023/08/26 00:31:13;;;;;;;9.80;6.70;;;;;;;14.89;100.00;100508.86;105779;1257;74683;-62
2023/08/26 00:33:40;;;;;;;14.70;7.60;;;;;;;14.82;100.00;100508.47;105884;1254;67276;-62
2023/08/26 00:36:08;;;;;;;14.20;7.20;;;;;;;14.75;100.00;100508.52;105634;1254;72601;-64
2023/08/26 00:38:35;;;;;;;12.00;7.10;;;;;;;14.72;100.00;100512.48;105399;1257;61265;-64
2023/08/26 00:41:02;;;;;;;9.20;6.30;;;;;;;14.70;100.00;100515.02;105635;1252;61169;-62
2023/08/26 00:43:30;;;;;;;11.00;6.90;;;;;;;14.66;100.00;100515.15;105468;1255;74913;-61
2023/08/26 00:45:58;;;;;;;12.20;7.20;;;;;;;14.60;100.00;100514.19;105769;1254;67209;-61
2023/08/26 00:48:25;;;;;;;12.20;6.90;;;;;;;14.53;100.00;100512.37;105664;1257;71419;-62
2023/08/26 00:50:53;;;;;;;14.80;7.40;;;;;;;14.47;100.00;100511.05;105452;1255;61246;-60
2023/08/26 00:53:20;;;;;;;13.00;7.80;;;;;;;14.44;100.00;100513.35;105553;1253;61250;-60
2023/08/26 00:55:47;;;;;;;12.40;7.00;;;;;;;14.43;100.00;100516.29;105546;1254;72490;-61
2023/08/26 00:58:14;;;;;;;10.90;6.30;;;;;;;14.42;100.00;100515.69;105817;1254;65894;-63
2023/08/26 01:00:41;;;;;;;12.90;6.50;;;;;;;14.43;100.00;100516.85;105441;1255;72704;-61
2023/08/26 01:03:08;;;;;;;13.10;7.90;;;;;;;14.43;100.00;100514.07;105571;1260;61238;-60
2023/08/26 01:05:36;;;;;;;16.60;8.00;;;;;;;14.43;100.00;100508.18;105666;1253;61337;-60
2023/08/26 01:08:04;;;;;;;15.00;7.50;;;;;;;14.46;100.00;100515.02;106175;1257;74465;-64
2023/08/26 01:11:02;;;;;;;14.60;7.60;;;;;;;14.50;100.00;100517.09;105914;1254;65993;-61
2023/08/26 01:14:08;;;;;;;13.40;7.80;;;;;;;14.55;100.00;100512.73;105746;1255;71652;-62
2023/08/26 01:16:35;;;;;;;17.60;7.50;;;;;;;14.59;100.00;100511.36;105782;1257;61256;-62
2023/08/26 01:19:03;;;;;;;12.70;7.30;;;;;;;14.63;100.00;100514.90;105802;1253;61224;-62
2023/08/26 01:21:35;;;;;;;11.40;7.50;;;;;;;14.65;100.00;100522.21;105854;1254;73625;-63
2023/08/26 01:24:04;;;;;;;11.90;6.80;;;;;;;14.64;100.00;100518.51;105775;1254;67053;-63
2023/08/26 01:26:31;;;;;;;11.90;7.50;;;;;;;14.61;100.00;100515.12;105819;1255;71728;-63
2023/08/26 01:28:58;;;;;;;11.50;7.10;;;;;;;14.55;100.00;100522.30;105698;1256;61112;-61
2023/08/26 01:31:25;;;;;;;11.90;6.80;;;;;;;14.46;100.00;100524.85;105553;1254;61278;-62
2023/08/26 01:34:31;;;;;;;12.60;7.00;;;;;;;14.35;100.00;100524.29;105675;1253;75135;-63
2023/08/26 01:36:58;;;;;;;11.40;6.50;;;;;;;14.24;100.00;100525.94;105071;1263;65641;-62
2023/08/26 01:39:25;;;;;;;11.60;7.00;;;;;;;14.18;100.00;100525.92;105051;1263;70348;-63
2023/08/26 01:41:52;;;;;;;10.10;6.40;;;;;;;14.13;100.00;100527.57;105770;1260;61351;-60
2023/08/26 01:44:19;;;;;;;12.00;7.10;;;;;;;14.09;100.00;100525.83;105804;1254;61218;-62
2023/08/26 01:46:47;;;;;;;13.50;7.90;;;;;;;14.05;100.00;100524.37;105621;1254;74765;-61
2023/08/26 01:49:14;;;;;;;11.70;7.10;;;;;;;14.02;100.00;100522.86;105826;1255;67318;-65
2023/08/26 01:51:41;;;;;;;15.20;7.40;;;;;;;13.99;100.00;100530.37;105711;1255;71045;-62
2023/08/26 01:54:08;;;;;;;11.30;7.30;;;;;;;13.95;100.00;100533.50;105771;1252;62041;-62
2023/08/26 01:56:36;;;;;;;11.90;7.20;;;;;;;13.89;100.00;100535.23;105856;1260;61239;-64
2023/08/26 01:59:03;;;;;;;11.40;7.20;;;;;;;13.82;100.00;100537.66;105939;1257;75429;-63
2023/08/26 02:01:33;;;;;;;10.20;6.20;;;;;;;13.78;100.00;100539.55;105634;1255;67170;-61
2023/08/26 02:04:00;;;;;;;12.70;7.00;;;;;;;13.72;100.00;100539.92;105743;1254;72464;-61
2023/08/26 02:06:27;;;;;;;13.30;7.10;;;;;;;13.67;100.00;100545.23;105815;1257;61229;-60
2023/08/26 02:08:54;;;;;;;10.40;6.90;;;;;;;13.63;100.00;100550.61;106184;1254;61230;-63
2023/08/26 02:11:21;;;;;;;12.20;7.80;;;;;;;13.59;100.00;100553.67;105601;1260;74871;-60
2023/08/26 02:13:49;;;;;;;16.30;7.80;;;;;;;13.57;100.00;100553.84;105777;1258;67212;-60
2023/08/26 02:16:16;;;;;;;11.70;7.20;;;;;;;13.54;100.00;100558.56;105803;1257;72714;-61
2023/08/26 02:18:44;;;;;;;9.70;6.70;;;;;;;13.52;100.00;100565.35;105843;1254;61226;-61
2023/08/26 02:21:12;;;;;;;9.20;6.20;;;;;;;13.52;100.00;100571.67;106130;1257;61378;-64
2023/08/26 02:23:39;;;;;;;12.10;7.60;;;;;;;13.50;100.00;100576.86;105605;1260;75693;-62
2023/08/26 02:26:06;;;;;;;10.70;6.40;;;;;;;13.50;100.00;100578.69;105765;1255;66904;-60
2023/08/26 02:28:34;;;;;;;10.20;6.50;;;;;;;13.52;100.00;100579.58;105754;1255;70559;-60
2023/08/26 02:31:02;;;;;;;11.40;6.60;;;;;;;13.56;100.00;100572.59;105640;1254;62075;-61
2023/08/26 02:33:30;;;;;;;9.40;6.20;;;;;;;13.59;100.00;100572.01;105761;1254;61262;-62
2023/08/26 02:35:57;;;;;;;14.00;7.00;;;;;;;13.61;100.00;100572.25;105403;1260;73459;-61
2023/08/26 02:38:24;;;;;;;12.60;5.80;;;;;;;13.64;100.00;100567.05;105724;1260;65921;-61
2023/08/26 02:40:55;;;;;;;12.70;7.10;;;;;;;13.65;100.00;100566.30;105816;1255;71416;-61
2023/08/26 02:43:22;;;;;;;11.70;6.50;;;;;;;13.63;100.00;100561.61;105881;1252;61213;-64
2023/08/26 02:45:53;;;;;;;11.80;7.20;;;;;;;13.64;100.00;100564.64;105551;1256;61172;-61
2023/08/26 02:48:21;;;;;;;9.60;6.70;;;;;;;13.67;100.00;100567.95;105801;1256;74793;-61
2023/08/26 02:50:58;;;;;;;13.30;7.00;;;;;;;13.68;100.00;100573.94;105859;1257;66073;-61
2023/08/26 02:53:26;;;;;;;11.50;6.90;;;;;;;13.71;100.00;100575.64;105847;1260;73342;-61
2023/08/26 02:55:53;;;;;;;11.80;6.50;;;;;;;13.76;100.00;100578.32;105555;1254;61360;-61
2023/08/26 02:58:20;;;;;;;11.40;6.20;;;;;;;13.80;100.00;100582.61;105841;1252;61241;-61
2023/08/26 03:00:47;;;;;;;51.80;8.20;;;;;;;13.81;100.00;100578.60;105813;1254;73256;-63
2023/08/26 03:03:14;;;;;;;12.30;6.80;;;;;;;13.81;100.00;100571.79;106118;1254;65933;-64
2023/08/26 03:05:42;;;;;;;11.30;7.60;;;;;;;13.85;100.00;100575.05;105477;1255;71091;-61
2023/08/26 03:08:09;;;;;;;11.80;7.00;;;;;;;13.90;100.00;100578.24;105890;1257;61499;-62
2023/08/26 03:10:37;;;;;;;12.60;7.40;;;;;;;13.94;100.00;100580.23;105846;1255;61338;-61
2023/08/26 03:13:06;;;;;;;11.80;6.40;;;;;;;13.98;100.00;100586.16;105812;1256;73724;-61
2023/08/26 03:15:34;;;;;;;11.60;6.90;;;;;;;14.04;100.00;100590.27;105856;1257;67815;-62
2023/08/26 03:18:01;;;;;;;11.10;7.00;;;;;;;14.10;100.00;100592.70;105769;1257;72725;-61
2023/08/26 03:20:28;;;;;;;8.90;5.70;;;;;;;14.20;100.00;100597.35;105855;1257;61915;-60
2023/08/26 03:22:55;;;;;;;9.10;6.10;;;;;;;14.33;100.00;100603.92;105650;1254;61319;-61
2023/08/26 03:25:23;;;;;;;9.70;6.80;;;;;;;14.47;100.00;100603.20;105778;1255;74604;-64
2023/08/26 03:27:50;;;;;;;9.40;5.80;;;;;;;14.58;100.00;100605.80;105725;1257;65866;-65
2023/08/26 03:30:17;;;;;;;7.80;6.10;;;;;;;14.71;100.00;100606.30;105547;1256;71215;-61
2023/08/26 03:32:44;;;;;;;11.80;5.90;;;;;;;15.01;100.00;100612.19;105659;1253;61979;-61
2023/08/26 03:35:12;;;;;;;8.30;5.90;;;;;;;15.64;100.00;100619.71;106006;1256;61345;-65
2023/08/26 03:37:39;;;;;;;9.00;5.40;;;;;;;16.61;100.00;100621.82;105821;1257;74672;-61
2023/08/26 03:40:08;;;;;;;9.80;5.90;;;;;;;17.75;100.00;100623.80;105628;1256;67084;-62
2023/08/26 03:42:36;;;;;;;8.60;4.90;;;;;;;18.98;100.00;100621.09;105827;1254;71972;-61
2023/08/26 03:45:04;;;;;;;9.00;4.70;;;;;;;20.21;100.00;100622.48;105659;1260;61332;-61
2023/08/26 03:47:32;;;;;;;9.60;5.60;;;;;;;21.33;100.00;100615.18;105358;1254;61223;-61
2023/08/26 03:50:00;;;;;;;9.50;5.70;;;;;;;22.22;100.00;100598.29;105682;1255;74120;-61
2023/08/26 03:52:28;;;;;;;9.80;5.10;;;;;;;22.78;100.00;100570.61;105816;1257;67185;-60
2023/08/26 03:54:55;;;;;;;9.70;5.60;;;;;;;23.09;100.00;100539.23;105514;1255;72826;-60
2023/08/26 03:57:22;;;;;;;9.50;5.90;;;;;;;23.44;100.00;100522.40;105714;1254;60974;-64
2023/08/26 03:59:50;;;;;;;10.10;5.50;;;;;;;23.87;100.00;100509.20;105744;1252;61243;-62
2023/08/26 04:02:17;;;;;;;9.60;5.70;;;;;;;24.33;100.00;100500.80;105600;1260;74942;-61
2023/08/26 04:04:44;;;;;;;8.30;5.60;;;;;;;24.62;100.00;100490.64;105664;1257;65896;-60
2023/08/26 04:07:11;;;;;;;10.80;5.80;;;;;;;24.70;100.00;100492.22;105704;1255;71618;-61
2023/08/26 04:09:38;;;;;;;8.00;5.50;;;;;;;24.88;100.00;100486.67;105601;1255;61306;-63
2023/08/26 04:12:06;;;;;;;11.20;5.70;;;;;;;25.10;100.00;100490.05;105859;1259;61156;-61
2023/08/26 04:14:33;;;;;;;7.10;5.10;;;;;;;25.40;100.00;100489.60;105777;1255;73318;-61
2023/08/26 04:17:03;;;;;;;7.10;5.00;;;;;;;25.87;100.00;100487.33;105860;1257;65920;-61
2023/08/26 04:19:33;;;;;;;7.80;5.50;;;;;;;26.23;100.00;100484.23;106125;1255;71356;-64
2023/08/26 04:22:01;;;;;;;8.20;5.70;;;;;;;26.34;100.00;100483.39;105663;1258;61538;-61
2023/08/26 04:24:28;;;;;;;7.80;5.10;;;;;;;26.29;100.00;100479.05;105783;1256;61112;-60
2023/08/26 04:26:55;;;;;;;10.30;5.70;;;;;;;26.28;100.00;100479.38;105961;1256;74548;-60
2023/08/26 04:29:22;;;;;;;9.70;5.70;;;;;;;26.49;100.00;100479.89;105921;1260;65746;-64
2023/08/26 04:31:49;;;;;;;10.10;5.60;;;;;;;26.88;100.00;100479.02;105801;1260;70660;-65
2023/08/26 04:34:16;;;;;;;6.50;5.20;;;;;;;27.16;100.00;100478.21;105879;1256;61218;-61
2023/08/26 04:36:43;;;;;;;9.90;5.40;;;;;;;27.28;100.00;100479.98;105745;1254;61112;-60
2023/08/26 04:39:13;;;;;;;9.40;5.60;;;;;;;27.25;100.00;100485.48;105745;1256;74882;-64
2023/08/26 04:41:40;;;;;;;8.90;5.60;;;;;;;27.33;100.00;100488.52;105769;1255;68692;-65
2023/08/26 04:44:08;;;;;;;6.70;4.80;;;;;;;27.72;100.00;100491.93;105604;1257;72444;-60
2023/08/26 04:46:37;;;;;;;8.70;4.50;;;;;;;28.28;100.00;100489.73;105724;1258;61316;-60
2023/08/26 04:49:05;;;;;;;8.60;5.10;;;;;;;28.85;99.06;100483.95;105772;1253;59675;-62
2023/08/26 04:51:32;;;;;;;7.60;4.80;;;;;;;29.31;93.76;100485.46;105876;1256;74235;-61
2023/08/26 04:53:59;;;;;;;6.60;4.40;;;;;;;29.79;85.89;100488.35;105862;1259;66387;-63
2023/08/26 04:56:27;;;;;;;6.30;4.00;;;;;;;30.14;78.40;100485.23;105818;1255;73440;-63
2023/08/26 04:58:54;;;;;;;6.30;4.60;;;;;;;30.53;71.14;100478.95;106099;1258;61907;-62
2023/08/26 05:01:21;;;;;;;8.20;4.20;;;;;;;30.68;64.84;100480.23;106075;1252;61208;-62
2023/08/26 05:03:49;;;;;;;6.00;4.40;;;;;;;30.95;64.27;100479.75;105760;1257;72643;-63
2023/08/26 05:06:16;;;;;;;5.50;3.90;;;;;;;31.39;59.68;100482.13;105472;1254;65696;-60
2023/08/26 05:08:43;;;;;;;5.60;3.70;;;;;;;31.80;56.62;100480.08;105639;1254;71443;-62
2023/08/26 05:11:11;;;;;;;7.60;4.30;;;;;;;32.17;52.13;100482.40;105876;1257;61311;-60
2023/08/26 05:13:37;;;;;;;5.90;4.50;;;;;;;32.33;49.68;100484.69;106127;1252;61342;-63
2023/08/26 05:16:04;;;;;;;11.40;4.60;;;;;;;32.37;49.56;100487.02;105796;1254;76049;-63
2023/08/26 05:18:32;;;;;;;6.00;3.60;;;;;;;32.50;48.44;100490.61;105790;1261;66575;-61
2023/08/26 05:20:59;;;;;;;7.20;4.60;;;;;;;32.56;46.47;100486.64;105691;1256;72686;-60
2023/08/26 05:23:27;;;;;;;7.20;4.20;;;;;;;32.64;46.05;100486.54;105600;1259;61434;-65
2023/08/26 05:25:54;;;;;;;10.60;4.30;;;;;;;32.64;44.93;100483.48;105328;1257;60503;-66
2023/08/26 05:28:21;;;;;;;7.60;4.00;;;;;;;32.42;44.65;100483.05;105663;1260;74461;-62
2023/08/26 05:30:48;;;;;;;7.50;4.10;;;;;;;32.11;45.31;100485.11;105600;1261;67218;-61
2023/08/26 05:33:16;;;;;;;5.30;3.80;;;;;;;31.84;44.83;100482.48;105746;1256;71380;-62
2023/08/26 05:35:43;;;;;;;6.90;3.70;;;;;;;31.45;45.29;100485.17;105770;1260;61335;-64
2023/08/26 05:38:10;;;;;;;5.80;3.80;;;;;;;31.10;45.59;100490.83;105566;1255;61819;-61
2023/08/26 05:40:38;;;;;;;6.50;4.10;;;;;;;30.79;48.30;100495.23;105590;1260;75236;-61
2023/08/26 05:43:05;;;;;;;7.40;4.10;;;;;;;30.76;50.55;100502.63;105490;1255;67510;-61
2023/08/26 05:45:34;;;;;;;6.80;3.80;;;;;;;30.94;50.20;100506.13;105860;1256;72733;-62
2023/08/26 05:48:02;;;;;;;5.40;3.90;;;;;;;31.15;50.20;100510.83;105705;1260;61640;-62
2023/08/26 05:50:30;;;;;;;4.60;3.70;;;;;;;31.49;48.10;100513.06;105614;1257;61228;-61
2023/08/26 05:52:57;;;;;;;6.30;4.10;;;;;;;31.64;47.24;100508.56;105596;1252;73931;-62
2023/08/26 05:55:24;;;;;;;4.90;3.70;;;;;;;31.73;46.57;100508.95;105942;1257;66026;-64
2023/08/26 05:57:51;;;;;;;5.50;3.90;;;;;;;32.00;46.88;100511.20;105486;1255;71522;-63
2023/08/26 06:00:19;;;;;;;5.30;3.80;;;;;;;32.51;44.65;100519.27;105745;1267;61319;-61
2023/08/26 06:02:49;;;;;;;4.70;4.00;;;;;;;32.60;43.12;100517.80;105990;1254;61281;-62
2023/08/26 06:05:16;;;;;;;9.30;4.40;;;;;;;32.55;42.33;100521.20;105938;1252;64903;-60
2023/08/26 06:07:45;;;;;;;6.80;4.00;;;;;;;32.35;42.31;100520.69;105777;1265;67840;-62
2023/08/26 06:10:13;;;;;;;6.30;3.70;;;;;;;32.45;43.51;100518.30;105538;1254;71480;-61
2023/08/26 06:12:41;;;;;;;5.90;3.90;;;;;;;32.95;43.42;100516.13;105692;1254;61363;-61
2023/08/26 06:15:10;;;;;;;5.20;3.80;;;;;;;33.33;40.23;100515.58;105751;1258;61167;-62
2023/08/26 06:17:41;;;;;;;5.10;4.00;;;;;;;33.25;40.80;100517.38;105990;1258;66161;-65
2023/08/26 06:20:09;;;;;;;5.30;4.10;;;;;;;33.21;42.26;100522.33;105874;1254;67239;-61
2023/08/26 06:22:36;;;;;;;8.20;3.90;;;;;;;33.34;41.21;100520.18;105788;1254;72786;-61
2023/08/26 06:25:03;;;;;;;8.40;4.40;;;;;;;33.20;41.09;100521.37;105723;1257;61269;-59
2023/08/26 06:27:30;;;;;;;10.10;8.50;;;;;;;33.08;40.37;100520.71;105993;1259;61245;-62
2023/08/26 06:29:58;;;;;;;11.40;6.10;;;;;;;32.96;40.31;100519.13;105484;1256;74159;-60
2023/08/26 06:32:25;;;;;;;8.30;5.30;;;;;;;33.06;40.29;100516.76;105747;1255;67084;-60
2023/08/26 06:34:54;;;;;;;39.50;8.60;;;;;;;33.30;39.97;100516.97;105744;1255;62856;-60
2023/08/26 06:37:21;;;;;;;6.60;4.40;;;;;;;33.78;40.16;100513.14;105873;1255;61313;-64
2023/08/26 06:39:48;;;;;;;6.20;4.10;;;;;;;34.16;40.23;100512.73;105666;1258;61281;-63
2023/08/26 06:42:15;;;;;;;8.40;4.20;;;;;;;34.60;39.49;100522.02;105710;1259;67014;-60
2023/08/26 06:44:51;;;;;;;7.40;4.20;;;;;;;34.97;36.36;100525.58;105418;1257;66755;-60
2023/08/26 06:47:18;;;;;;;7.00;4.30;;;;;;;35.14;35.44;100523.46;105930;1256;64138;-63
2023/08/26 06:49:45;;;;;;;6.40;4.20;;;;;;;35.38;34.11;100523.92;105829;1256;61344;-61
2023/08/26 06:52:14;;;;;;;6.00;4.20;;;;;;;35.29;33.73;100523.35;105821;1257;61218;-60
2023/08/26 06:54:41;;;;;;;6.20;4.50;;;;;;;35.37;33.52;100522.19;105776;1254;66176;-61
2023/08/26 06:57:08;;;;;;;5.40;3.70;;;;;;;35.75;33.12;100521.63;105454;1255;61112;-61
2023/08/26 06:59:35;;;;;;;4.80;3.10;;;;;;;36.08;32.20;100522.52;105754;1256;71922;-60
2023/08/26 07:02:02;;;;;;;22.40;5.30;;;;;;;35.88;31.90;100521.28;105424;1257;61212;-60
2023/08/26 07:04:29;;;;;;;7.40;4.10;;;;;;;35.73;32.24;100513.81;105676;1256;61398;-61
2023/08/26 07:06:56;;;;;;;5.70;3.40;;;;;;;35.77;32.01;100518.80;105641;1256;66144;-62
2023/08/26 07:09:23;;;;;;;4.80;3.50;;;;;;;35.86;31.98;100519.58;105391;1257;61219;-61
2023/08/26 07:11:50;;;;;;;4.90;3.30;;;;;;;35.85;30.82;100524.90;105776;1255;62838;-62
2023/08/26 07:14:17;;;;;;;3.40;2.40;;;;;;;35.59;30.98;100525.30;105482;1263;61252;-60
2023/08/26 07:16:44;;;;;;;4.00;3.00;;;;;;;35.45;29.90;100527.21;106109;1254;61224;-61
2023/08/26 07:19:13;;;;;;;3.40;2.60;;;;;;;35.16;30.18;100529.30;105755;1254;66074;-62
2023/08/26 07:21:40;;;;;;;4.00;2.80;;;;;;;34.92;30.82;100527.56;105907;1257;61791;-61
2023/08/26 07:24:07;;;;;;;5.00;2.80;;;;;;;34.82;30.93;100525.87;105664;1255;64115;-60
2023/08/26 07:26:34;;;;;;;4.40;2.40;;;;;;;34.83;30.92;100530.10;105869;1253;59581;-60
2023/08/26 07:29:01;;;;;;;5.50;2.30;;;;;;;34.81;30.86;100529.73;105714;1255;59593;-61
2023/08/26 07:31:28;;;;;;;4.70;2.20;;;;;;;34.65;30.78;100529.45;105914;1257;73525;-61
2023/08/26 07:33:55;;;;;;;3.60;2.30;;;;;;;34.34;31.46;100530.58;105818;1254;66952;-61
2023/08/26 07:36:22;;;;;;;6.40;2.20;;;;;;;34.17;31.59;100527.94;105759;1257;73156;-61
2023/08/26 07:38:49;;;;;;;6.30;1.80;;;;;;;34.08;31.68;100523.52;105735;1254;61130;-62
2023/08/26 07:41:16;;;;;;;3.50;1.90;;;;;;;34.19;32.08;100520.82;105761;1256;61246;-63
2023/08/26 07:43:43;;;;;;;4.00;1.50;;;;;;;34.41;31.77;100518.27;105854;1253;65374;-62
2023/08/26 07:46:10;;;;;;;2.70;1.80;;;;;;;34.50;31.23;100512.02;105496;1258;65975;-61
2023/08/26 07:48:40;;;;;;;3.10;1.70;;;;;;;34.51;30.63;100507.58;105727;1258;62886;-61
2023/08/26 07:51:07;;;;;;;3.60;1.60;;;;;;;34.61;30.56;100509.82;105686;1254;61309;-60
2023/08/26 07:53:34;;;;;;;3.50;1.60;;;;;;;34.72;30.44;100512.35;105777;1254;61255;-64
2023/08/26 07:56:01;;;;;;;2.80;1.70;;;;;;;34.68;30.34;100510.66;105799;1252;66284;-62
2023/08/26 07:58:28;;;;;;;3.20;1.80;;;;;;;34.49;30.41;100506.64;105746;1254;61271;-61
2023/08/26 08:00:55;;;;;;;2.50;1.90;;;;;;;34.29;31.22;100504.83;105836;1254;72428;-61
2023/08/26 08:03:22;;;;;;;2.70;1.70;;;;;;;34.15;31.73;100501.36;105855;1254;61421;-61
2023/08/26 08:05:49;;;;;;;2.90;1.60;;;;;;;34.24;31.38;100496.00;105989;1257;61366;-64
2023/08/26 08:08:16;;;;;;;6.00;1.40;;;;;;;34.45;31.84;100492.21;105594;1254;74728;-61
2023/08/26 08:10:43;;;;;;;3.40;1.90;;;;;;;34.88;31.99;100489.83;105732;1256;66000;-60
2023/08/26 08:13:12;;;;;;;3.80;1.90;;;;;;;35.19;31.24;100490.70;105814;1254;64098;-60
2023/08/26 08:15:39;;;;;;;5.30;2.20;;;;;;;35.08;30.55;100493.14;106160;1253;61243;-60
2023/08/26 08:18:06;;;;;;;5.40;2.10;;;;;;;34.99;31.08;100487.85;105631;1254;61271;-62
2023/08/26 08:20:33;;;;;;;3.40;2.10;;;;;;;35.35;30.93;100488.05;105597;1257;74687;-60
2023/08/26 08:23:00;;;;;;;9.50;2.40;;;;;;;35.83;30.23;100485.02;105960;1254;61180;-60
2023/08/26 08:25:27;;;;;;;3.10;1.70;;;;;;;36.36;29.75;100487.67;105833;1254;63957;-60
2023/08/26 08:27:54;;;;;;;3.10;2.20;;;;;;;36.76;28.89;100484.98;106120;1254;61234;-64
2023/08/26 08:30:22;;;;;;;7.20;2.70;;;;;;;36.88;28.39;100480.65;105818;1257;61118;-61
2023/08/26 08:32:50;;;;;;;3.30;1.80;;;;;;;36.64;28.14;100479.04;105807;1256;67572;-60
2023/08/26 08:35:16;;;;;;;3.10;1.90;;;;;;;36.37;28.78;100477.78;105783;1254;60034;-60
2023/08/26 08:37:43;;;;;;;3.40;1.80;;;;;;;36.20;28.98;100476.52;106126;1254;64094;-63
2023/08/26 08:40:11;;;;;;;3.50;2.20;;;;;;;36.22;29.20;100475.33;105694;1254;61243;-61
2023/08/26 08:42:40;;;;;;;3.90;2.00;;;;;;;36.18;29.46;100473.42;105799;1254;61212;-61
2023/08/26 08:45:07;;;;;;;3.30;2.20;;;;;;;36.06;29.74;100475.25;105833;1254;66069;-60
2023/08/26 08:47:34;;;;;;;3.60;2.40;;;;;;;35.91;29.71;100477.78;105878;1254;61355;-60
2023/08/26 08:50:02;;;;;;;5.50;2.40;;;;;;;35.51;29.69;100478.57;105930;1253;63849;-64
2023/08/26 08:52:29;;;;;;;3.00;2.20;;;;;;;34.88;30.35;100482.27;105474;1257;61265;-61
2023/08/26 08:54:56;;;;;;;2.80;1.90;;;;;;;34.69;31.23;100487.42;105765;1257;61332;-60
2023/08/26 08:57:23;;;;;;;3.80;2.50;;;;;;;34.79;31.97;100479.91;105555;1257;75106;-61
2023/08/26 08:59:50;;;;;;;3.00;2.30;;;;;;;34.96;31.42;100477.18;105763;1254;61323;-64
2023/08/26 09:02:19;;;;;;;4.20;2.40;;;;;;;35.06;31.86;100476.92;105558;1253;72789;-61
2023/08/26 09:04:46;;;;;;;3.80;2.00;;;;;;;35.13;31.73;100476.67;105839;1254;61208;-60
2023/08/26 09:07:13;;;;;;;4.50;2.50;;;;;;;35.31;31.47;100475.84;105704;1259;61332;-60
2023/08/26 09:09:40;;;;;;;8.90;2.30;;;;;;;35.45;31.30;100472.05;105697;1256;65872;-60
2023/08/26 09:12:26;;;;;;;5.80;2.30;;;;;;;35.64;30.67;100467.48;105500;1254;61176;-60
2023/08/26 09:14:53;;;;;;;4.10;2.20;;;;;;;35.83;30.43;100463.55;105843;1255;64854;-61
2023/08/26 09:17:20;;;;;;;3.90;2.30;;;;;;;36.06;29.86;100463.54;105972;1254;306559;-61
2023/08/26 09:19:58;;;;;;;4.30;2.50;;;;;;;36.18;29.43;100460.17;106059;1254;61313;-62
2023/08/26 09:22:26;;;;;;;5.20;2.40;;;;;;;36.35;29.22;100458.80;105539;1253;65964;-61
2023/08/26 09:24:55;;;;;;;9.00;2.40;;;;;;;36.60;28.92;100455.77;105698;1254;61268;-61
2023/08/26 09:27:22;;;;;;;3.90;1.90;;;;;;;36.89;28.36;100451.17;105824;1254;62653;-61
2023/08/26 09:29:49;;;;;;;4.80;2.30;;;;;;;37.25;27.93;100453.09;105980;1253;61106;-64
2023/08/26 09:32:35;;;;;;;3.30;1.80;;;;;;;37.59;27.44;100455.15;105791;1256;61251;-61
2023/08/26 09:35:28;;;;;;;4.10;2.30;;;;;;;37.87;27.47;100450.21;105739;1254;64921;-61
2023/08/26 09:37:58;;;;;;;4.30;2.70;;;;;;;38.04;26.98;100452.74;105864;1257;61345;-61
2023/08/26 09:40:26;;;;;;;4.50;2.60;;;;;;;37.97;26.80;100454.73;105924;1257;62876;-60
2023/08/26 09:42:53;;;;;;;5.10;2.70;;;;;;;37.67;26.48;100452.42;105903;1254;61261;-65
2023/08/26 09:45:20;;;;;;;3.80;2.70;;;;;;;37.23;26.82;100456.23;106113;1254;61220;-63
2023/08/26 09:47:51;;;;;;;4.20;2.50;;;;;;;36.59;27.63;100449.66;105927;1254;76172;-61
2023/08/26 09:50:18;;;;;;;5.40;2.60;;;;;;;35.98;28.26;100458.83;106267;1257;61495;-61
2023/08/26 09:52:49;;;;;;;3.50;2.30;;;;;;;35.60;29.14;100455.45;105692;1254;64217;-62
2023/08/26 09:55:16;;;;;;;6.10;2.40;;;;;;;35.61;29.29;100461.28;106091;1254;61262;-63
2023/08/26 09:57:43;;;;;;;4.90;2.40;;;;;;;35.53;29.14;100455.88;105504;1256;60458;-63
2023/08/26 10:00:10;;;;;;;3.60;2.50;;;;;;;35.39;29.45;100457.73;105787;1256;65973;-63
2023/08/26 10:02:50;;;;;;;5.40;2.70;;;;;;;35.60;29.43;100451.34;105675;1256;65894;-60
2023/08/26 10:05:21;;;;;;;4.20;2.40;;;;;;;35.78;28.59;100453.72;105942;1257;64128;-61
2023/08/26 10:07:52;;;;;;;4.40;2.10;;;;;;;35.78;28.79;100454.43;105810;1254;61257;-59
2023/08/26 10:10:47;;;;;;;4.60;2.10;;;;;;;35.83;28.70;100454.73;105758;1254;61342;-60
2023/08/26 10:13:15;;;;;;;3.00;2.10;;;;;;;36.00;28.09;100453.95;105468;1256;65515;-60
2023/08/26 10:15:43;;;;;;;6.00;2.20;;;;;;;36.09;28.48;100456.80;105719;1252;61258;-59
2023/08/26 10:18:18;;;;;;;6.30;2.10;;;;;;;36.04;28.20;100456.83;105602;1254;62994;-61
2023/08/26 10:20:45;;;;;;;3.90;2.50;;;;;;;35.95;28.25;100457.05;105831;1259;62099;-61
2023/08/26 10:23:12;;;;;;;2.70;1.70;;;;;;;35.65;27.86;100450.84;105440;1257;61134;-60
2023/08/26 10:25:39;;;;;;;4.60;2.00;;;;;;;35.18;28.67;100446.92;105838;1253;66039;-62
2023/08/26 10:28:07;;;;;;;3.50;1.70;;;;;;;34.88;28.77;100444.17;105675;1254;61259;-61
2023/08/26 10:30:34;;;;;;;3.60;1.60;;;;;;;34.53;28.96;100445.05;105583;1259;64457;-63
2023/08/26 10:33:02;;;;;;;3.30;2.30;;;;;;;34.09;29.60;100443.71;105625;1252;61259;-62
2023/08/26 10:35:30;;;;;;;3.80;2.40;;;;;;;33.70;29.93;100440.80;105865;1254;61146;-62
2023/08/26 10:38:14;;;;;;;2.90;2.20;;;;;;;33.57;30.29;100432.08;105737;1254;74760;-61
2023/08/26 10:40:41;;;;;;;6.40;2.20;;;;;;;33.67;30.32;100432.65;105867;1257;60399;-62
2023/08/26 10:43:12;;;;;;;3.80;2.50;;;;;;;33.68;30.04;100430.14;105816;1257;72686;-62
2023/08/26 10:45:47;;;;;;;3.10;1.90;;;;;;;33.42;30.08;100431.32;105648;1256;61256;-62
2023/08/26 10:48:14;;;;;;;4.10;2.10;;;;;;;33.01;30.50;100430.20;105809;1254;61255;-62
2023/08/26 10:50:44;;;;;;;3.30;2.20;;;;;;;32.81;30.96;100431.20;105740;1253;65316;-60
2023/08/26 10:53:15;;;;;;;3.50;2.20;;;;;;;32.64;31.76;100425.36;105723;1257;65941;-61
2023/08/26 10:55:43;;;;;;;3.30;2.10;;;;;;;32.44;32.81;100423.30;105610;1258;63972;-65
2023/08/26 10:58:13;;;;;;;3.20;1.90;;;;;;;32.05;32.84;100429.42;105669;1254;61310;-61
2023/08/26 11:00:41;;;;;;;3.10;2.20;;;;;;;31.60;33.38;100426.23;105787;1256;61131;-62
2023/08/26 11:03:09;;;;;;;3.60;2.20;;;;;;;31.55;34.24;100425.04;105750;1254;73467;-63
2023/08/26 11:05:44;;;;;;;3.40;2.50;;;;;;;31.77;33.66;100428.13;105766;1254;66505;-62
2023/08/26 11:08:11;;;;;;;5.50;2.60;;;;;;;32.11;33.97;100426.36;105675;1257;72695;-65
2023/08/26 11:10:39;;;;;;;3.60;2.10;;;;;;;32.62;33.79;100425.54;105530;1256;61326;-61
2023/08/26 11:13:07;;;;;;;5.50;2.50;;;;;;;33.18;32.99;100421.65;105786;1254;61234;-61
2023/08/26 11:15:43;;;;;;;3.50;2.40;;;;;;;33.38;32.36;100423.12;105799;1256;74595;-61
2023/08/26 11:18:10;;;;;;;4.50;2.60;;;;;;;33.37;32.24;100420.92;105991;1256;66219;-63